Time;durP1;ratioP1;P1;durP2;ratioP2;P2;SDS_P1;SDS_P2;PMS_P1;PMS_P2;Temp;Humidity;BMP_temperature;BMP_pressure;BME280_temperature;BME280_humidity;BME280_pressure;Samples;Min_cycle;Max_cycle;Signal;HPM_P1;HPM_P2
2022/09/11 00:01:06;;;;;;;14.93;8.32;;;15.00;99.90;;;;;;4975118;28;22023;-70
2022/09/11 00:03:33;;;;;;;19.48;8.35;;;15.00;99.90;;;;;;4992100;28;20022;-69
2022/09/11 00:06:03;;;;;;;16.67;8.75;;;15.00;99.90;;;;;;4993512;28;20033;-70
2022/09/11 00:08:30;;;;;;;13.25;8.02;;;14.90;99.90;;;;;;4992594;28;20109;-71
2022/09/11 00:11:03;;;;;;;15.13;8.68;;;14.90;99.90;;;;;;4993683;28;20025;-69
2022/09/11 00:13:30;;;;;;;20.67;9.00;;;14.90;99.90;;;;;;4992989;28;20566;-69
2022/09/11 00:15:56;;;;;;;22.50;10.00;;;14.90;99.90;;;;;;4992690;28;20099;-70
2022/09/11 00:18:22;;;;;;;20.77;9.82;;;14.90;99.90;;;;;;4993339;28;20022;-70
2022/09/11 00:20:50;;;;;;;18.08;9.23;;;14.90;99.90;;;;;;4993463;28;20038;-70
2022/09/11 00:23:17;;;;;;;14.25;8.88;;;14.80;99.90;;;;;;4993564;28;20019;-71
2022/09/11 00:25:45;;;;;;;18.70;9.40;;;14.90;99.90;;;;;;4993126;28;20046;-72
2022/09/11 00:28:14;;;;;;;29.73;10.30;;;14.80;99.90;;;;;;4992523;28;20030;-68
2022/09/11 00:30:39;;;;;;;17.60;9.65;;;14.80;99.90;;;;;;4993638;28;20061;-69
2022/09/11 00:33:05;;;;;;;23.58;10.52;;;14.80;99.90;;;;;;4992754;28;20019;-68
2022/09/11 00:35:30;;;;;;;19.95;10.18;;;14.80;99.90;;;;;;4993105;28;20402;-70
2022/09/11 00:37:56;;;;;;;18.67;9.50;;;14.80;99.90;;;;;;4992678;28;20030;-69
2022/09/11 00:40:24;;;;;;;23.05;10.82;;;14.80;99.90;;;;;;4992687;28;20034;-69
2022/09/11 00:42:52;;;;;;;20.00;8.88;;;14.80;99.90;;;;;;4991980;28;20027;-70
2022/09/11 00:45:24;;;;;;;22.13;10.05;;;14.70;99.90;;;;;;4992597;28;20035;-68
2022/09/11 00:47:52;;;;;;;16.13;9.55;;;14.70;99.90;;;;;;4993005;28;20069;-69
2022/09/11 00:50:21;;;;;;;20.98;10.63;;;14.70;99.90;;;;;;4992767;28;20027;-69
2022/09/11 00:52:53;;;;;;;26.98;11.07;;;14.70;99.90;;;;;;4993090;28;20068;-69
2022/09/11 00:55:21;;;;;;;24.63;10.18;;;14.70;99.90;;;;;;4991791;28;20091;-69
2022/09/11 00:57:56;;;;;;;23.23;11.35;;;14.60;99.90;;;;;;4992136;28;20027;-70
2022/09/11 01:00:21;;;;;;;;;;;14.70;99.90;;;;;;4993719;28;20041;-70
2022/09/11 01:02:50;;;;;;;20.27;10.35;;;14.70;99.90;;;;;;4992401;28;19937;-69
2022/09/11 01:05:16;;;;;;;17.40;8.98;;;14.70;99.90;;;;;;4991925;28;20014;-70
2022/09/11 01:07:44;;;;;;;29.50;11.25;;;14.80;99.90;;;;;;4992573;28;20026;-70
2022/09/11 01:10:11;;;;;;;26.67;10.77;;;14.80;99.90;;;;;;4992095;28;20046;-71
2022/09/11 01:12:48;;;;;;;26.10;10.18;;;14.80;99.90;;;;;;4992584;28;20046;-70
2022/09/11 01:15:29;;;;;;;21.88;11.02;;;14.80;99.90;;;;;;4992923;28;20081;-71
2022/09/11 01:18:18;;;;;;;21.85;11.02;;;14.90;99.90;;;;;;4992141;28;20489;-70
2022/09/11 01:21:14;;;;;;;23.38;10.95;;;14.90;99.90;;;;;;4992816;28;20019;-69
2022/09/11 01:23:52;;;;;;;19.50;10.00;;;14.90;99.90;;;;;;4991928;28;20047;-71
2022/09/11 01:26:37;;;;;;;19.30;9.65;;;14.80;99.90;;;;;;4991933;28;20058;-69
2022/09/11 01:29:17;;;;;;;18.65;9.85;;;14.80;99.90;;;;;;4991424;28;20027;-70
2022/09/11 01:32:10;;;;;;;19.15;10.52;;;14.70;99.90;;;;;;4992392;28;20080;-71
2022/09/11 01:34:44;;;;;;;19.70;9.52;;;14.70;99.90;;;;;;4985541;28;20150;-70
2022/09/11 01:37:17;;;;;;;18.13;9.73;;;14.70;99.90;;;;;;4991943;28;20037;-70
2022/09/11 01:39:53;;;;;;;17.35;9.95;;;14.70;99.90;;;;;;4993718;28;20045;-69
2022/09/11 01:42:21;;;;;;;30.50;11.88;;;14.70;99.90;;;;;;4996197;28;20085;-71
2022/09/11 01:44:53;;;;;;;18.38;9.85;;;14.70;99.90;;;;;;4978238;28;20054;-70
2022/09/11 01:47:19;;;;;;;24.63;10.48;;;14.70;99.90;;;;;;4995929;28;20027;-70
2022/09/11 01:49:57;;;;;;;19.33;11.07;;;14.70;99.90;;;;;;4978439;28;20039;-70
2022/09/11 01:52:29;;;;;;;21.13;11.50;;;14.70;99.90;;;;;;4995999;28;20062;-69
2022/09/11 01:55:01;;;;;;;19.40;9.85;;;14.70;99.90;;;;;;4996084;28;20039;-69
2022/09/11 01:57:30;;;;;;;17.30;10.68;;;14.70;99.90;;;;;;4995455;28;20023;-69
2022/09/11 02:00:00;;;;;;;28.45;11.52;;;14.70;99.90;;;;;;4995614;28;20102;-70
2022/09/11 02:02:34;;;;;;;19.10;10.63;;;14.70;99.90;;;;;;4995967;28;20041;-69
2022/09/11 02:05:04;;;;;;;;;;;14.70;99.90;;;;;;4996318;28;20022;-70
2022/09/11 02:07:42;;;;;;;19.65;11.23;;;14.70;99.90;;;;;;4995139;28;19953;-71
2022/09/11 02:10:19;;;;;;;20.60;10.48;;;14.60;99.90;;;;;;4995976;28;20023;-70
2022/09/11 02:13:11;;;;;;;20.25;10.80;;;14.50;99.90;;;;;;4995182;28;20038;-70
2022/09/11 02:15:51;;;;;;;19.88;11.10;;;14.40;99.90;;;;;;4996311;28;20069;-70
2022/09/11 02:18:28;;;;;;;22.38;9.82;;;14.40;99.90;;;;;;4995537;28;20138;-70
2022/09/11 02:20:53;;;;;;;22.83;10.88;;;14.40;99.90;;;;;;4994340;28;20039;-70
2022/09/11 02:23:19;;;;;;;19.48;10.05;;;14.40;99.90;;;;;;4995278;28;20037;-69
2022/09/11 02:25:46;;;;;;;24.70;11.52;;;14.40;99.90;;;;;;4994984;28;20023;-69
2022/09/11 02:28:12;;;;;;;26.35;11.63;;;14.30;99.90;;;;;;4995806;28;20026;-70
2022/09/11 02:30:40;;;;;;;25.05;11.93;;;14.30;99.90;;;;;;4994929;28;20082;-71
2022/09/11 02:33:30;;;;;;;22.88;10.95;;;14.30;99.90;;;;;;4995322;28;20035;-69
2022/09/11 02:36:10;;;;;;;23.80;12.48;;;14.30;99.90;;;;;;4993937;28;20041;-70
2022/09/11 02:38:55;;;;;;;19.02;10.68;;;14.20;99.90;;;;;;4995178;28;20015;-70
2022/09/11 02:41:34;;;;;;;19.02;10.93;;;14.20;99.90;;;;;;4994895;28;20479;-69
2022/09/11 02:44:32;;;;;;;19.48;11.65;;;14.20;99.90;;;;;;4995268;28;20061;-70
2022/09/11 02:47:17;;;;;;;18.38;10.18;;;14.20;99.90;;;;;;4994892;28;20038;-71
2022/09/11 02:49:57;;;;;;;21.27;10.70;;;14.10;99.90;;;;;;4995375;28;20088;-70
2022/09/11 02:52:46;;;;;;;23.85;12.25;;;14.10;99.90;;;;;;4994669;28;20033;-70
2022/09/11 02:55:21;;;;;;;23.40;11.10;;;14.10;99.90;;;;;;4994765;28;20031;-72
2022/09/11 02:58:03;;;;;;;17.70;10.48;;;14.10;99.90;;;;;;4994206;28;20098;-71
2022/09/11 03:00:29;;;;;;;17.35;10.30;;;14.10;99.90;;;;;;4994124;28;20030;-70
2022/09/11 03:02:55;;;;;;;23.08;11.63;;;14.00;99.90;;;;;;4994805;28;20083;-69
2022/09/11 03:05:22;;;;;;;28.13;12.88;;;14.00;99.90;;;;;;4995093;28;20034;-69
2022/09/11 03:07:48;;;;;;;24.02;12.20;;;14.00;99.90;;;;;;4993622;28;20022;-69
2022/09/11 03:10:13;;;;;;;22.65;12.93;;;14.00;99.90;;;;;;4994803;28;20019;-69
2022/09/11 03:12:40;;;;;;;24.08;11.55;;;14.00;99.90;;;;;;4995257;28;20126;-70
2022/09/11 03:15:08;;;;;;;21.85;11.32;;;14.00;99.90;;;;;;4993868;28;20039;-71
2022/09/11 03:17:34;;;;;;;20.73;10.90;;;14.00;99.90;;;;;;4994363;28;20044;-69
2022/09/11 03:19:59;;;;;;;22.42;11.48;;;14.00;99.90;;;;;;4994507;28;20018;-69
2022/09/11 03:22:25;;;;;;;28.73;10.90;;;14.00;99.90;;;;;;4994451;28;20034;-70
2022/09/11 03:24:50;;;;;;;17.75;10.18;;;14.00;99.90;;;;;;4994641;28;20019;-71
2022/09/11 03:27:16;;;;;;;27.83;12.50;;;14.00;99.90;;;;;;4994367;28;20039;-70
2022/09/11 03:29:43;;;;;;;21.20;10.68;;;14.00;99.90;;;;;;4994374;28;20026;-71
2022/09/11 03:32:09;;;;;;;41.70;12.50;;;14.00;99.90;;;;;;4994623;28;20113;-70
2022/09/11 03:34:35;;;;;;;22.42;11.05;;;14.00;99.90;;;;;;4994355;28;20515;-70
2022/09/11 03:37:01;;;;;;;21.85;11.57;;;14.00;99.90;;;;;;4993859;28;20368;-70
2022/09/11 03:39:26;;;;;;;19.95;11.10;;;14.10;99.90;;;;;;4994225;28;20014;-71
2022/09/11 03:41:53;;;;;;;31.73;11.57;;;14.10;99.90;;;;;;4993897;28;20046;-70
2022/09/11 03:44:19;;;;;;;26.08;13.10;;;14.10;99.90;;;;;;4993432;28;20050;-69
2022/09/11 03:46:44;;;;;;;23.15;12.10;;;14.20;99.90;;;;;;4993455;28;20022;-71
2022/09/11 03:49:10;;;;;;;22.92;12.02;;;14.20;99.90;;;;;;4994155;28;20026;-70
2022/09/11 03:51:36;;;;;;;20.67;9.82;;;14.30;99.90;;;;;;4994400;28;20035;-70
2022/09/11 03:54:02;;;;;;;27.70;13.00;;;14.30;99.90;;;;;;4993996;28;20782;-69
2022/09/11 03:56:28;;;;;;;24.60;11.40;;;14.30;99.90;;;;;;4993421;28;20495;-69
2022/09/11 03:58:56;;;;;;;22.52;11.07;;;14.40;99.90;;;;;;4993831;28;20368;-70
2022/09/11 04:01:21;;;;;;;24.45;11.07;;;14.40;99.90;;;;;;4992996;28;20046;-70
2022/09/11 04:03:47;;;;;;;32.35;11.27;;;14.40;99.90;;;;;;4975533;28;20034;-69
2022/09/11 04:06:13;;;;;;;27.02;10.00;;;14.40;99.90;;;;;;4993764;28;20050;-69
2022/09/11 04:08:40;;;;;;;28.67;10.55;;;14.50;99.90;;;;;;4993137;28;20038;-69
2022/09/11 04:11:06;;;;;;;20.73;11.20;;;14.50;99.90;;;;;;4993560;28;20018;-70
2022/09/11 04:13:37;;;;;;;23.33;10.40;;;14.50;99.90;;;;;;4976150;28;20030;-70
2022/09/11 04:16:10;;;;;;;20.70;10.20;;;14.50;99.90;;;;;;4992902;28;20086;-70
2022/09/11 04:18:38;;;;;;;17.55;9.88;;;14.50;99.90;;;;;;4992862;28;20086;-70
2022/09/11 04:21:05;;;;;;;23.17;11.40;;;14.50;99.90;;;;;;4993274;28;20070;-69
2022/09/11 04:23:31;;;;;;;23.45;9.90;;;14.50;99.90;;;;;;4992640;28;20053;-70
2022/09/11 04:25:57;;;;;;;36.80;9.73;;;14.50;99.90;;;;;;4993151;28;20035;-69
2022/09/11 04:28:22;;;;;;;20.55;10.27;;;14.50;99.90;;;;;;4992414;28;20439;-70
2022/09/11 04:30:48;;;;;;;30.10;11.57;;;14.50;99.90;;;;;;4993096;28;20022;-68
2022/09/11 04:33:14;;;;;;;33.05;12.05;;;14.50;99.90;;;;;;4992875;28;20031;-70
2022/09/11 04:35:40;;;;;;;17.13;10.57;;;14.50;99.90;;;;;;4992854;28;20047;-70
2022/09/11 04:38:06;;;;;;;24.20;11.15;;;14.60;99.90;;;;;;4992229;28;20043;-69
2022/09/11 04:40:33;;;;;;;24.98;11.40;;;14.40;99.90;;;;;;4993143;28;20510;-69
2022/09/11 04:43:00;;;;;;;17.98;10.70;;;14.40;99.90;;;;;;4992273;28;20034;-69
2022/09/11 04:45:26;;;;;;;25.17;10.45;;;14.40;99.90;;;;;;4992377;28;20030;-71
2022/09/11 04:47:51;;;;;;;20.88;9.88;;;14.40;99.90;;;;;;4992350;28;20022;-70
2022/09/11 04:50:18;;;;;;;20.83;10.30;;;14.40;99.90;;;;;;4992770;28;20085;-70
2022/09/11 04:52:44;;;;;;;18.23;9.50;;;14.30;99.90;;;;;;4993099;28;20038;-71
2022/09/11 04:55:11;;;;;;;21.10;10.32;;;14.30;99.90;;;;;;4992521;28;20101;-69
2022/09/11 04:57:37;;;;;;;24.20;9.63;;;14.30;99.90;;;;;;4992970;28;20105;-70
2022/09/11 05:00:05;;;;;;;22.42;9.88;;;14.30;99.90;;;;;;4992615;28;20062;-70
2022/09/11 05:02:31;;;;;;;16.65;9.30;;;14.30;99.90;;;;;;4992552;28;20487;-71
2022/09/11 05:04:57;;;;;;;45.13;9.68;;;14.30;99.90;;;;;;4992154;28;20590;-69
2022/09/11 05:07:24;;;;;;;22.45;9.45;;;14.30;99.90;;;;;;4991566;28;20017;-70
2022/09/11 05:09:51;;;;;;;20.63;9.57;;;14.30;99.90;;;;;;4991610;28;20034;-69
2022/09/11 05:12:30;;;;;;;14.57;9.07;;;14.20;99.90;;;;;;4991736;28;20108;-70
2022/09/11 05:14:56;;;;;;;14.70;8.20;;;14.20;99.90;;;;;;4991435;28;20031;-71
2022/09/11 05:17:22;;;;;;;51.35;8.75;;;14.10;99.90;;;;;;4991234;28;20018;-71
2022/09/11 05:19:48;;;;;;;14.90;7.97;;;14.10;99.90;;;;;;4989382;28;20094;-69
2022/09/11 05:22:14;;;;;;;41.45;9.00;;;14.10;99.90;;;;;;4992537;28;20058;-70
2022/09/11 05:24:40;;;;;;;15.90;7.93;;;14.10;99.90;;;;;;4990483;28;20019;-70
2022/09/11 05:27:08;;;;;;;44.33;8.68;;;14.10;99.90;;;;;;4989298;28;20042;-69
2022/09/11 05:29:34;;;;;;;24.92;7.72;;;14.10;99.90;;;;;;4992238;28;20097;-70
2022/09/11 05:32:09;;;;;;;10.77;7.00;;;14.10;99.90;;;;;;4992133;28;20023;-70
2022/09/11 05:34:34;;;;;;;22.02;7.90;;;14.10;99.90;;;;;;4974826;28;20042;-70
2022/09/11 05:37:06;;;;;;;16.17;7.60;;;14.10;99.90;;;;;;4991253;28;20086;-70
2022/09/11 05:39:32;;;;;;;43.35;9.43;;;14.10;99.90;;;;;;4990339;28;20098;-71
2022/09/11 05:41:57;;;;;;;45.20;9.07;;;14.20;99.90;;;;;;4991876;28;20046;-71
2022/09/11 05:44:23;;;;;;;36.60;9.75;;;14.20;99.90;;;;;;4991857;28;20049;-71
2022/09/11 05:46:49;;;;;;;20.25;8.48;;;14.30;99.90;;;;;;4987623;28;20062;-71
2022/09/11 05:49:14;;;;;;;35.33;10.93;;;14.20;99.90;;;;;;4985756;28;20030;-73
2022/09/11 05:51:40;;;;;;;24.33;9.70;;;14.30;99.90;;;;;;4974530;28;20074;-72
2022/09/11 05:54:07;;;;;;;25.23;10.20;;;14.30;99.90;;;;;;4991625;28;20039;-72
2022/09/11 05:56:33;;;;;;;24.02;10.52;;;14.30;99.90;;;;;;4990066;28;20027;-71
2022/09/11 05:58:59;;;;;;;89.22;12.27;;;14.30;99.90;;;;;;4990205;28;20026;-71
2022/09/11 06:01:26;;;;;;;35.83;10.55;;;14.30;99.90;;;;;;4991596;28;20372;-71
2022/09/11 06:03:52;;;;;;;45.15;11.43;;;14.40;99.90;;;;;;4991826;28;20026;-72
2022/09/11 06:06:20;;;;;;;48.33;9.40;;;14.40;99.90;;;;;;4990776;28;20039;-72
2022/09/11 06:08:48;;;;;;;22.55;7.88;;;14.30;99.90;;;;;;4990582;28;20027;-73
2022/09/11 06:11:16;;;;;;;16.55;7.85;;;14.30;99.90;;;;;;4990922;28;20034;-72
2022/09/11 06:13:43;;;;;;;27.35;8.98;;;14.30;99.90;;;;;;4990825;28;20482;-71
2022/09/11 06:16:12;;;;;;;15.45;8.25;;;14.30;99.90;;;;;;4991445;28;21040;-72
2022/09/11 06:18:38;;;;;;;36.17;9.40;;;14.30;99.90;;;;;;4990479;28;20042;-72
2022/09/11 06:21:06;;;;;;;25.92;9.02;;;14.30;99.90;;;;;;4990584;28;20023;-72
2022/09/11 06:23:34;;;;;;;37.78;8.85;;;14.30;99.90;;;;;;4990906;28;20026;-72
2022/09/11 06:26:20;;;;;;;14.48;7.55;;;14.30;99.90;;;;;;4990631;28;20038;-72
2022/09/11 06:28:46;;;;;;;14.95;8.50;;;14.40;99.90;;;;;;4994467;28;20030;-72
2022/09/11 06:31:15;;;;;;;18.42;9.27;;;14.40;99.90;;;;;;4995386;28;20030;-73
2022/09/11 06:33:41;;;;;;;39.38;8.27;;;14.40;99.90;;;;;;4995552;28;20475;-72
2022/09/11 06:36:10;;;;;;;16.27;8.00;;;14.50;99.90;;;;;;4994121;28;20054;-72
2022/09/11 06:38:39;;;;;;;15.15;8.65;;;14.50;99.90;;;;;;4977113;28;20037;-72
2022/09/11 06:41:09;;;;;;;21.88;8.48;;;14.60;99.90;;;;;;4994754;28;20073;-72
2022/09/11 06:43:34;;;;;;;14.48;8.57;;;14.60;99.90;;;;;;4993654;28;20054;-72
2022/09/11 06:46:26;;;;;;;20.27;9.18;;;14.60;99.90;;;;;;4994996;28;20034;-71
2022/09/11 06:48:52;;;;;;;12.57;7.03;;;14.60;99.90;;;;;;4990710;28;20039;-73
2022/09/11 06:51:20;;;;;;;15.82;8.38;;;14.60;99.90;;;;;;4993913;28;20034;-71
2022/09/11 06:53:46;;;;;;;15.18;7.85;;;14.60;99.90;;;;;;4994205;28;20026;-72
2022/09/11 06:56:15;;;;;;;17.98;8.98;;;14.70;99.90;;;;;;4994654;28;20038;-72
2022/09/11 06:58:42;;;;;;;13.98;8.75;;;14.70;99.90;;;;;;4994586;28;20046;-73
2022/09/11 07:01:14;;;;;;;13.90;7.85;;;14.70;99.90;;;;;;4993102;28;20033;-72
2022/09/11 07:03:47;;;;;;;16.17;7.75;;;14.70;99.90;;;;;;4994533;28;20467;-72
2022/09/11 07:06:16;;;;;;;14.03;8.10;;;14.80;99.90;;;;;;4994423;28;20041;-72
2022/09/11 07:08:42;;;;;;;15.32;8.30;;;14.80;99.90;;;;;;4994182;28;20041;-72
2022/09/11 07:11:12;;;;;;;15.15;8.48;;;14.90;99.90;;;;;;4994014;28;20041;-73
2022/09/11 07:13:39;;;;;;;21.05;7.90;;;14.90;99.90;;;;;;4975622;28;20395;-73
2022/09/11 07:16:07;;;;;;;17.20;7.97;;;15.00;99.90;;;;;;4993772;28;20038;-72
2022/09/11 07:18:44;;;;;;;19.83;8.18;;;15.00;99.90;;;;;;4994218;28;20099;-71
2022/09/11 07:21:22;;;;;;;20.40;8.70;;;15.00;99.90;;;;;;4993693;28;20042;-73
2022/09/11 07:23:55;;;;;;;23.92;7.82;;;15.10;99.90;;;;;;4994634;28;20038;-71
2022/09/11 07:26:24;;;;;;;15.75;8.88;;;15.20;99.90;;;;;;4993227;28;20033;-72
2022/09/11 07:28:51;;;;;;;14.50;8.38;;;15.20;99.90;;;;;;4994522;28;20030;-72
2022/09/11 07:31:19;;;;;;;15.35;8.48;;;15.30;99.90;;;;;;4993557;28;20070;-72
2022/09/11 07:33:49;;;;;;;14.20;8.23;;;15.30;99.90;;;;;;4994159;28;20029;-71
2022/09/11 07:36:17;;;;;;;10.73;6.38;;;15.40;99.90;;;;;;4994071;28;20035;-72
2022/09/11 07:38:45;;;;;;;12.90;6.72;;;15.40;99.90;;;;;;4992829;28;20027;-71
2022/09/11 07:41:13;;;;;;;10.30;6.65;;;15.40;99.90;;;;;;4993831;28;20026;-71
2022/09/11 07:44:22;;;;;;;10.90;5.72;;;15.50;99.90;;;;;;4993952;28;20042;-71
2022/09/11 07:46:29;;;;;;;10.48;5.95;;;15.60;99.90;;;;;;4986762;28;20037;-71
2022/09/11 07:48:55;;;;;;;8.98;5.68;;;15.70;99.90;;;;;;4993270;28;20098;-71
2022/09/11 07:51:21;;;;;;;10.20;6.07;;;15.80;99.90;;;;;;4992561;28;20479;-72
2022/09/11 07:53:50;;;;;;;10.23;5.85;;;15.90;99.90;;;;;;4993510;28;20026;-71
2022/09/11 07:56:18;;;;;;;12.07;5.80;;;16.10;99.90;;;;;;4993517;28;20431;-72
2022/09/11 07:58:45;;;;;;;10.80;6.45;;;16.10;99.90;;;;;;4993018;28;20046;-72
2022/09/11 08:01:14;;;;;;;10.43;5.53;;;16.30;99.90;;;;;;4976442;28;20371;-70
2022/09/11 08:03:44;;;;;;;10.90;6.53;;;16.40;99.90;;;;;;4992599;28;20026;-72
2022/09/11 08:06:26;;;;;;;7.25;4.63;;;16.60;99.90;;;;;;4993843;28;20044;-72
2022/09/11 08:08:53;;;;;;;8.25;5.03;;;16.70;99.90;;;;;;4993875;28;20529;-71
2022/09/11 08:11:20;;;;;;;8.80;4.78;;;16.80;99.90;;;;;;4992036;28;20046;-71
2022/09/11 08:13:53;;;;;;;7.68;5.25;;;16.90;99.90;;;;;;4993673;28;20073;-72
2022/09/11 08:16:20;;;;;;;5.80;3.67;;;17.00;99.90;;;;;;4989600;28;20042;-71
2022/09/11 08:18:47;;;;;;;10.35;5.03;;;17.00;99.90;;;;;;4992082;28;20042;-71
2022/09/11 08:21:13;;;;;;;7.38;5.03;;;17.10;99.90;;;;;;4992215;28;20049;-73
2022/09/11 08:23:41;;;;;;;8.32;4.50;;;17.10;99.90;;;;;;4992126;28;20066;-72
2022/09/11 08:26:16;;;;;;;8.40;5.30;;;17.20;99.90;;;;;;4975499;28;20030;-72
2022/09/11 08:28:44;;;;;;;6.80;4.25;;;17.20;99.90;;;;;;4992682;28;20038;-73
2022/09/11 08:31:11;;;;;;;10.20;4.82;;;17.20;99.90;;;;;;4992277;28;20022;-73
2022/09/11 08:33:39;;;;;;;7.40;4.28;;;17.20;99.90;;;;;;4988578;28;20030;-71
2022/09/11 08:36:08;;;;;;;8.10;4.35;;;17.20;99.90;;;;;;4992780;28;20907;-72
2022/09/11 08:38:36;;;;;;;8.32;4.97;;;17.20;99.90;;;;;;4993290;28;20518;-70
2022/09/11 08:41:16;;;;;;;8.13;4.80;;;17.10;99.90;;;;;;4991817;28;20053;-71
2022/09/11 08:43:49;;;;;;;10.07;5.35;;;17.20;99.90;;;;;;4992741;28;20066;-71
2022/09/11 08:46:17;;;;;;;8.10;4.93;;;17.30;99.90;;;;;;4991549;28;20539;-72
2022/09/11 08:49:01;;;;;;;8.00;4.70;;;17.30;99.90;;;;;;4990023;28;20034;-71
2022/09/11 08:51:27;;;;;;;;;;;17.30;99.90;;;;;;4992740;28;20368;-72
2022/09/11 08:53:55;;;;;;;8.27;4.25;;;17.30;99.90;;;;;;4992234;28;19909;-72
2022/09/11 08:56:25;;;;;;;11.38;4.63;;;17.40;99.90;;;;;;4990878;28;20049;-73
2022/09/11 08:59:16;;;;;;;5.95;3.40;;;17.50;99.90;;;;;;4991903;28;20054;-71
2022/09/11 09:01:53;;;;;;;7.03;4.00;;;17.60;99.90;;;;;;4992614;28;20037;-71
2022/09/11 09:04:38;;;;;;;5.90;3.92;;;17.60;99.90;;;;;;4992027;28;20092;-71
2022/09/11 09:07:18;;;;;;;6.82;3.80;;;17.70;99.90;;;;;;4992384;28;20094;-71
2022/09/11 09:10:02;;;;;;;3.97;2.45;;;17.90;99.90;;;;;;4992570;28;20027;-73
2022/09/11 09:12:45;;;;;;;4.65;2.92;;;18.00;99.90;;;;;;4991261;28;20030;-72
2022/09/11 09:15:23;;;;;;;6.30;3.20;;;18.10;99.90;;;;;;4990444;28;20043;-74
2022/09/11 09:17:59;;;;;;;5.75;3.22;;;18.00;99.90;;;;;;4992235;28;20030;-71
2022/09/11 09:20:37;;;;;;;7.53;3.05;;;17.90;99.90;;;;;;4991741;28;20490;-72
2022/09/11 09:23:18;;;;;;;4.18;2.53;;;17.90;99.90;;;;;;4991500;28;20038;-71
2022/09/11 09:25:44;;;;;;;4.75;2.83;;;18.00;99.90;;;;;;4991817;28;20022;-72
2022/09/11 09:28:24;;;;;;;3.42;2.22;;;18.30;99.90;;;;;;4988766;28;20828;-73
2022/09/11 09:30:56;;;;;;;4.47;2.70;;;18.50;99.90;;;;;;4990716;28;20039;-71
2022/09/11 09:33:33;;;;;;;4.00;2.72;;;18.70;99.90;;;;;;4991951;28;20042;-71
2022/09/11 09:36:15;;;;;;;6.75;3.08;;;18.80;99.90;;;;;;4992053;28;20534;-72
2022/09/11 09:38:42;;;;;;;5.82;2.45;;;18.70;99.90;;;;;;4991272;28;20034;-73
2022/09/11 09:41:32;;;;;;;4.72;2.10;;;18.70;99.90;;;;;;4990347;28;20034;-72
2022/09/11 09:44:28;;;;;;;5.05;2.50;;;18.60;99.90;;;;;;4969791;28;20051;-71
2022/09/11 09:47:01;;;;;;;6.47;2.50;;;18.60;99.90;;;;;;4965174;28;20031;-72
2022/09/11 09:49:34;;;;;;;2.97;2.05;;;18.60;99.90;;;;;;4969792;28;20046;-73
2022/09/11 09:52:10;;;;;;;2.58;2.15;;;18.60;99.90;;;;;;4972095;28;20556;-71
2022/09/11 09:54:38;;;;;;;2.90;2.20;;;18.70;99.90;;;;;;4970035;28;20511;-71
2022/09/11 09:57:09;;;;;;;4.00;2.53;;;18.80;99.90;;;;;;4968284;28;20463;-71
2022/09/11 10:00:05;;;;;;;5.35;3.05;;;19.00;99.90;;;;;;4971421;28;20114;-71
2022/09/11 10:02:42;;;;;;;3.22;2.33;;;19.10;99.90;;;;;;4942094;28;20043;-72
2022/09/11 10:05:24;;;;;;;2.92;2.25;;;19.30;99.90;;;;;;4974769;28;20039;-71
2022/09/11 10:07:57;;;;;;;4.93;3.05;;;19.30;99.90;;;;;;4972109;28;20045;-72
2022/09/11 10:10:43;;;;;;;4.22;2.45;;;19.30;99.90;;;;;;4973147;28;20399;-71
2022/09/11 10:13:23;;;;;;;3.13;2.38;;;19.40;99.90;;;;;;4975331;28;20051;-72
2022/09/11 10:15:54;;;;;;;7.05;2.42;;;19.50;99.90;;;;;;4975715;28;20262;-71
2022/09/11 10:18:32;;;;;;;3.95;2.70;;;19.50;99.90;;;;;;4976584;28;20027;-72
2022/09/11 10:21:21;;;;;;;11.43;2.28;;;19.40;99.90;;;;;;4973306;28;20038;-71
2022/09/11 10:24:09;;;;;;;5.03;2.42;;;19.40;99.90;;;;;;4973647;28;20022;-72
2022/09/11 10:26:42;;;;;;;3.78;2.53;;;19.40;99.90;;;;;;4974385;28;20499;-72
2022/09/11 10:29:25;;;;;;;2.50;2.05;;;19.30;99.90;;;;;;4976529;28;20026;-74
2022/09/11 10:31:56;;;;;;;4.10;2.90;;;19.20;99.90;;;;;;4972625;28;20035;-71
2022/09/11 10:34:25;;;;;;;3.97;2.45;;;19.20;99.90;;;;;;4974347;28;20043;-73
2022/09/11 10:36:57;;;;;;;3.20;2.33;;;19.10;99.90;;;;;;4974074;28;20031;-72
2022/09/11 10:39:27;;;;;;;1.52;1.35;;;19.20;99.90;;;;;;4972787;28;20163;-71
2022/09/11 10:41:57;;;;;;;2.30;1.60;;;19.40;99.90;;;;;;4975021;28;20035;-71
2022/09/11 10:44:24;;;;;;;2.20;1.73;;;19.70;99.90;;;;;;4987510;28;20049;-71
2022/09/11 10:47:02;;;;;;;2.50;1.92;;;20.00;99.90;;;;;;4993367;28;20031;-73
2022/09/11 10:49:27;;;;;;;3.72;1.95;;;20.10;99.90;;;;;;4994174;28;20519;-73
2022/09/11 10:52:15;;;;;;;4.40;2.30;;;20.30;99.90;;;;;;4991635;28;20030;-71
2022/09/11 10:55:03;;;;;;;2.05;1.85;;;20.40;99.90;;;;;;4994442;28;20475;-71
2022/09/11 10:57:46;;;;;;;2.88;1.80;;;20.40;99.90;;;;;;4994254;28;20640;-70
2022/09/11 11:00:27;;;;;;;2.28;1.73;;;20.60;99.90;;;;;;4991785;28;20550;-73
2022/09/11 11:02:58;;;;;;;3.90;1.70;;;20.80;99.90;;;;;;4992701;28;20031;-71
2022/09/11 11:05:32;;;;;;;2.20;1.52;;;21.00;99.90;;;;;;4993722;28;21405;-71
2022/09/11 11:08:17;;;;;;;2.83;1.80;;;21.20;99.90;;;;;;4993487;28;20042;-71
2022/09/11 11:10:51;;;;;;;;;;;21.30;99.90;;;;;;4994689;28;20049;-70
2022/09/11 11:13:29;;;;;;;2.00;1.10;;;21.40;99.90;;;;;;4994368;28;19978;-72
2022/09/11 11:16:13;;;;;;;1.13;0.88;;;21.60;99.90;;;;;;4994275;28;20160;-71
2022/09/11 11:18:48;;;;;;;1.25;1.00;;;21.80;99.90;;;;;;4994438;28;20026;-73
2022/09/11 11:21:31;;;;;;;1.98;1.05;;;22.00;99.90;;;;;;4991803;28;20038;-71
2022/09/11 11:23:59;;;;;;;1.80;1.20;;;22.00;99.90;;;;;;4992908;28;20058;-72
2022/09/11 11:26:47;;;;;;;1.42;1.13;;;21.90;99.90;;;;;;4994130;28;20423;-71
2022/09/11 11:29:44;;;;;;;1.10;1.00;;;21.60;99.90;;;;;;4993988;28;20046;-70
2022/09/11 11:32:26;;;;;;;1.30;1.13;;;21.30;99.90;;;;;;4993764;28;20057;-72
2022/09/11 11:35:16;;;;;;;1.33;1.05;;;21.30;99.90;;;;;;4994104;28;20035;-71
2022/09/11 11:37:45;;;;;;;1.65;1.10;;;21.50;99.90;;;;;;4989528;28;20030;-71
2022/09/11 11:40:23;;;;;;;1.23;0.60;;;21.60;99.90;;;;;;4993810;28;20024;-71
2022/09/11 11:43:00;;;;;;;1.10;0.63;;;21.80;99.90;;;;;;4992886;28;20382;-71
2022/09/11 11:45:33;;;;;;;2.33;0.85;;;22.00;99.90;;;;;;4993123;28;20518;-71
2022/09/11 11:48:17;;;;;;;1.17;0.82;;;21.90;99.90;;;;;;4993163;28;20102;-71
2022/09/11 11:50:46;;;;;;;;;;;22.00;99.90;;;;;;4993697;28;20064;-72
2022/09/11 11:53:30;;;;;;;1.20;0.73;;;22.10;99.90;;;;;;4992613;28;19982;-71
2022/09/11 11:56:13;;;;;;;1.35;0.63;;;22.40;99.90;;;;;;4993014;28;20026;-71
2022/09/11 11:58:46;;;;;;;1.35;0.82;;;22.70;99.90;;;;;;4975549;28;20039;-73
2022/09/11 12:01:19;;;;;;;0.68;0.47;;;22.80;99.90;;;;;;4993149;28;20057;-70
2022/09/11 12:04:00;;;;;;;0.93;0.50;;;22.60;99.90;;;;;;4993204;28;20023;-71
2022/09/11 12:06:25;;;;;;;0.70;0.43;;;22.30;99.90;;;;;;4992520;28;20029;-70
2022/09/11 12:08:51;;;;;;;1.23;0.50;;;22.00;99.90;;;;;;4971126;28;20125;-72
2022/09/11 12:11:28;;;;;;;0.90;0.40;;;22.10;99.90;;;;;;4992513;28;20037;-70
2022/09/11 12:13:54;;;;;;;0.60;0.52;;;22.30;99.90;;;;;;4990382;28;20035;-71
2022/09/11 12:16:32;;;;;;;0.65;0.43;;;22.50;99.90;;;;;;4989109;28;20042;-71
2022/09/11 12:19:15;;;;;;;1.27;0.60;;;22.50;99.90;;;;;;4991785;28;20514;-71
2022/09/11 12:21:53;;;;;;;0.95;0.55;;;22.50;99.90;;;;;;4992006;28;20054;-72
2022/09/11 12:24:51;;;;;;;0.82;0.45;;;22.60;99.90;;;;;;4992163;28;20039;-70
2022/09/11 12:27:34;;;;;;;5.75;0.80;;;22.90;99.90;;;;;;4992122;28;20522;-69
2022/09/11 12:30:15;;;;;;;0.50;0.47;;;23.20;99.90;;;;;;4992943;28;20081;-69
2022/09/11 12:32:46;;;;;;;2.25;0.63;;;23.20;99.90;;;;;;4991186;28;20031;-69
2022/09/11 12:35:26;;;;;;;0.43;0.43;;;23.40;99.90;;;;;;4993024;28;20069;-69
2022/09/11 12:37:55;;;;;;;0.88;0.50;;;23.60;99.90;;;;;;4992903;28;20035;-69
2022/09/11 12:41:06;;;;;;;2.05;0.40;;;23.50;99.90;;;;;;4991770;28;20030;-69
2022/09/11 12:43:34;;;;;;;0.55;0.50;;;23.30;99.90;;;;;;4955970;28;20047;-69
2022/09/11 12:46:07;;;;;;;1.17;0.82;;;23.00;99.90;;;;;;4991963;28;20039;-70
2022/09/11 12:48:42;;;;;;;0.75;0.50;;;22.80;99.90;;;;;;4992370;28;20038;-71
2022/09/11 12:51:28;;;;;;;0.47;0.40;;;23.00;99.90;;;;;;4992444;28;20037;-71
2022/09/11 12:53:59;;;;;;;0.90;0.63;;;23.20;99.90;;;;;;4992299;28;20138;-69
2022/09/11 12:56:27;;;;;;;1.02;0.50;;;23.60;99.90;;;;;;4992412;28;20031;-72
2022/09/11 12:59:21;;;;;;;0.68;0.30;;;23.90;99.90;;;;;;4992144;28;20027;-70
2022/09/11 13:01:47;;;;;;;0.70;0.60;;;24.20;99.90;;;;;;4992172;28;20019;-70
2022/09/11 13:04:18;;;;;;;0.75;0.52;;;24.40;99.90;;;;;;4991608;28;20031;-71